West Linton, Indiana
Current Conditions -  °F | °C
As of 4:15 PM on Monday 22 Dec 2014 (Local Time) from KDCY Reporting Station
Light Rain Light Rain  
Wind Chill:   Ceiling: 7000
Heat Index:   Visibility: 7mi
Dew Point:   Wind: 10mph
Humidity: 84%   Direction: 130°SE
Pressure: 29.71"   Gusts: NA
Location:  39.0608°N, 87.1852°W
Report Text: KDCY 222115Z AUTO 13009KT 7SM -RA SCT027 SCT042 OVC070 09/06 A2971 RMK AO2 P0001 T00850060
Loading
Personal Weather Stations






























Interactive Weather Map New forecast layout! Learn more

10-Day Weather Forecast

Advertisements
Track Severe Weather on mobile